Time;durP1;ratioP1;P1;durP2;ratioP2;P2;SDS_P1;SDS_P2;PMS_P1;PMS_P2;Temp;Humidity;BMP_temperature;BMP_pressure;BME280_temperature;BME280_humidity;BME280_pressure;Samples;Min_cycle;Max_cycle;Signal;HPM_P1;HPM_P2
2022/09/13 00:00:36;;;;;;;6.88;4.38;;;;;;;16.60;100.00;100940.69;5008681;28;20125;-65
2022/09/13 00:03:02;;;;;;;5.70;4.53;;;;;;;16.63;100.00;100945.03;5026821;28;20041;-65
2022/09/13 00:05:28;;;;;;;4.60;4.03;;;;;;;16.65;100.00;100935.47;5026836;28;20029;-65
2022/09/13 00:07:54;;;;;;;4.80;4.07;;;;;;;16.66;100.00;100942.44;5026632;28;20025;-65
2022/09/13 00:10:19;;;;;;;6.63;4.57;;;;;;;16.67;100.00;100937.25;5026711;28;20036;-65
2022/09/13 00:12:46;;;;;;;4.75;4.13;;;;;;;16.67;100.00;100931.13;5025933;28;20079;-65
2022/09/13 00:15:11;;;;;;;5.60;4.38;;;;;;;16.69;100.00;100939.88;5012869;28;20072;-65
2022/09/13 00:17:36;;;;;;;5.07;4.10;;;;;;;16.71;100.00;100945.13;5030298;28;20061;-65
2022/09/13 00:20:02;;;;;;;4.60;4.20;;;;;;;16.70;100.00;100939.00;5030551;28;20361;-65
2022/09/13 00:22:28;;;;;;;4.75;4.30;;;;;;;16.69;100.00;100940.72;5029884;28;20034;-65
2022/09/13 00:24:53;;;;;;;4.63;3.95;;;;;;;16.71;100.00;100929.41;5029823;28;20025;-65
2022/09/13 00:27:18;;;;;;;5.05;3.88;;;;;;;16.71;100.00;100927.69;5030185;28;20117;-65
2022/09/13 00:29:45;;;;;;;4.68;3.83;;;;;;;16.71;100.00;100922.47;5029781;28;20031;-65
2022/09/13 00:32:10;;;;;;;4.07;3.70;;;;;;;16.72;100.00;100921.56;5030790;28;20374;-65
2022/09/13 00:34:35;;;;;;;5.28;4.55;;;;;;;16.73;100.00;100925.94;5030384;28;20059;-65
2022/09/13 00:37:01;;;;;;;7.22;4.45;;;;;;;16.73;100.00;100920.69;5029797;28;20026;-65
2022/09/13 00:39:26;;;;;;;5.95;4.72;;;;;;;16.71;100.00;100917.22;5029975;28;20037;-65
2022/09/13 00:41:51;;;;;;;4.68;4.18;;;;;;;16.70;100.00;100907.59;5029945;28;20053;-65
2022/09/13 00:44:54;;;;;;;6.47;4.90;;;;;;;16.71;100.00;100908.50;5029710;28;20039;-65
2022/09/13 00:47:25;;;;;;;5.15;4.63;;;;;;;16.73;100.00;100910.22;5029491;28;20121;-65
2022/09/13 00:49:57;;;;;;;5.25;4.60;;;;;;;16.77;100.00;100903.28;5029805;28;20052;-65
2022/09/13 00:52:26;;;;;;;6.70;4.93;;;;;;;16.78;100.00;100900.66;5029641;28;20068;-65
2022/09/13 00:55:07;;;;;;;5.43;4.97;;;;;;;16.80;100.00;100901.56;5029722;28;20109;-65
2022/09/13 00:57:35;;;;;;;5.20;4.35;;;;;;;16.82;100.00;100901.56;5028821;28;20041;-65
2022/09/13 01:00:15;;;;;;;6.35;4.78;;;;;;;16.84;100.00;100896.38;5029607;28;20064;-65
2022/09/13 01:02:44;;;;;;;6.68;5.00;;;;;;;16.83;100.00;100895.50;5029637;28;20014;-65
2022/09/13 01:05:12;;;;;;;5.82;4.82;;;;;;;16.82;100.00;100892.88;5029487;28;20436;-65
2022/09/13 01:07:37;;;;;;;6.03;4.68;;;;;;;16.84;100.00;100892.00;5028702;28;20017;-65
2022/09/13 01:10:05;;;;;;;4.88;4.25;;;;;;;16.84;100.00;100896.38;5029604;28;20477;-65
2022/09/13 01:12:43;;;;;;;4.82;4.40;;;;;;;16.85;100.00;100892.88;5029512;28;20026;-65
2022/09/13 01:15:09;;;;;;;5.07;3.97;;;;;;;16.85;100.00;100898.13;5029232;28;20021;-65
2022/09/13 01:17:35;;;;;;;5.05;4.25;;;;;;;16.86;100.00;100895.50;5029234;28;20112;-65
2022/09/13 01:20:02;;;;;;;4.90;4.43;;;;;;;16.85;100.00;100885.91;5023272;28;20049;-65
2022/09/13 01:22:55;;;;;;;4.40;4.00;;;;;;;16.86;100.00;100884.16;5022918;28;20095;-65
2022/09/13 01:25:38;;;;;;;5.07;4.07;;;;;;;16.88;100.00;100879.81;5029427;28;20083;-65
2022/09/13 01:28:38;;;;;;;6.60;4.50;;;;;;;16.90;100.00;100880.69;5028895;28;20083;-65
2022/09/13 01:31:14;;;;;;;5.70;4.72;;;;;;;16.91;100.00;100887.66;5028820;28;20112;-65
2022/09/13 01:34:03;;;;;;;4.45;4.13;;;;;;;16.93;100.00;100888.56;5028540;28;20473;-65
2022/09/13 01:37:01;;;;;;;4.88;4.25;;;;;;;16.92;100.00;100882.47;5000244;28;20029;-65
2022/09/13 01:39:37;;;;;;;5.43;4.57;;;;;;;16.90;100.00;100886.81;5028609;28;20040;-65
2022/09/13 01:42:16;;;;;;;5.93;3.83;;;;;;;16.90;100.00;100883.31;5028923;28;20045;-64
2022/09/13 01:45:23;;;;;;;6.38;4.35;;;;;;;16.88;100.00;100885.03;5028706;28;20057;-65
2022/09/13 01:47:55;;;;;;;6.25;4.10;;;;;;;16.87;100.00;100888.53;5029007;28;20068;-64
2022/09/13 01:50:32;;;;;;;5.22;4.50;;;;;;;16.84;100.00;100883.28;5028221;28;20036;-65
2022/09/13 01:53:04;;;;;;;5.63;3.85;;;;;;;16.83;100.00;100877.19;5028275;28;20053;-64
2022/09/13 01:55:47;;;;;;;4.03;3.65;;;;;;;16.79;100.00;100884.13;5028359;28;20029;-64
2022/09/13 01:58:45;;;;;;;5.35;3.85;;;;;;;16.77;100.00;100880.63;5028091;28;20396;-65
2022/09/13 02:01:39;;;;;;;4.60;3.58;;;;;;;16.76;100.00;100883.22;5028604;28;20068;-65
2022/09/13 02:04:15;;;;;;;3.85;3.55;;;;;;;16.75;100.00;100879.72;5028258;28;20033;-65
2022/09/13 02:07:04;;;;;;;4.25;3.95;;;;;;;16.73;100.00;100875.38;5028392;28;20167;-65
2022/09/13 02:09:34;;;;;;;4.80;4.40;;;;;;;16.73;100.00;100876.22;5027839;28;20656;-65
2022/09/13 02:12:18;;;;;;;4.63;4.22;;;;;;;16.73;100.00;100875.38;5028807;28;20074;-65
2022/09/13 02:14:51;;;;;;;5.45;3.97;;;;;;;16.71;100.00;100875.38;5026304;28;20022;-65
2022/09/13 02:17:22;;;;;;;4.43;3.95;;;;;;;16.71;100.00;100877.97;5028055;28;20029;-65
2022/09/13 02:20:00;;;;;;;4.05;3.65;;;;;;;16.69;100.00;100877.94;5027808;28;20100;-65
2022/09/13 02:22:36;;;;;;;3.72;3.42;;;;;;;16.69;100.00;100879.72;5027089;28;20083;-65
2022/09/13 02:25:08;;;;;;;4.32;3.92;;;;;;;16.68;100.00;100876.19;5028017;28;20025;-65
2022/09/13 02:27:36;;;;;;;4.47;3.70;;;;;;;16.69;100.00;100887.56;5028169;28;20130;-65
2022/09/13 02:30:09;;;;;;;4.25;3.85;;;;;;;16.69;100.00;100887.56;5027648;28;20477;-64
2022/09/13 02:32:45;;;;;;;4.30;3.90;;;;;;;16.68;100.00;100889.28;5027480;28;20033;-64
2022/09/13 02:35:24;;;;;;;5.00;3.83;;;;;;;16.67;100.00;100878.81;5027903;28;20103;-65
2022/09/13 02:38:02;;;;;;;4.60;3.70;;;;;;;16.67;100.00;100886.66;5027319;28;20139;-65
2022/09/13 02:40:51;;;;;;;6.03;3.80;;;;;;;16.65;100.00;100884.03;5027947;28;20022;-65
2022/09/13 02:43:30;;;;;;;4.40;4.00;;;;;;;16.64;100.00;100878.78;5027030;28;20067;-65
2022/09/13 02:46:13;;;;;;;4.22;3.90;;;;;;;16.62;100.00;100889.22;5026872;28;20061;-65
2022/09/13 02:48:55;;;;;;;4.93;4.18;;;;;;;16.61;100.00;100897.06;5027318;28;20108;-65
2022/09/13 02:51:35;;;;;;;4.88;4.38;;;;;;;16.62;100.00;100897.06;5022420;28;20033;-64
2022/09/13 02:54:22;;;;;;;5.63;3.75;;;;;;;16.65;100.00;100896.22;5026935;28;20083;-65
2022/09/13 02:57:19;;;;;;;4.97;4.22;;;;;;;16.67;100.00;100902.34;5027223;28;20129;-65
2022/09/13 02:59:47;;;;;;;4.80;4.38;;;;;;;16.66;100.00;100900.59;5026892;28;20045;-64
2022/09/13 03:02:17;;;;;;;6.38;4.60;;;;;;;16.68;100.00;100898.88;5027439;28;20517;-65
2022/09/13 03:04:42;;;;;;;7.72;4.90;;;;;;;16.68;100.00;100898.88;5026945;28;20025;-65
2022/09/13 03:07:13;;;;;;;4.65;4.25;;;;;;;16.69;100.00;100900.63;5027307;28;20430;-65
2022/09/13 03:09:47;;;;;;;5.38;4.13;;;;;;;16.71;100.00;100898.03;5026904;28;20503;-65
2022/09/13 03:12:28;;;;;;;7.13;4.47;;;;;;;16.72;100.00;100898.03;5027835;28;20045;-65
2022/09/13 03:14:59;;;;;;;5.18;4.63;;;;;;;16.74;100.00;100898.03;5026525;28;20029;-64
2022/09/13 03:17:43;;;;;;;;;;;;;;;16.74;100.00;100893.69;5027329;28;20030;-64
2022/09/13 03:20:13;;;;;;;4.38;4.00;;;;;;;16.77;100.00;100888.47;5022510;28;19913;-65
2022/09/13 03:22:47;;;;;;;4.53;4.07;;;;;;;16.79;100.00;100898.94;5027160;28;20499;-64
2022/09/13 03:25:36;;;;;;;4.32;3.92;;;;;;;16.80;100.00;100893.72;5027099;28;20094;-65
2022/09/13 03:28:16;;;;;;;4.07;3.60;;;;;;;16.80;100.00;100885.88;5027020;28;20435;-64
2022/09/13 03:30:49;;;;;;;5.45;3.80;;;;;;;16.80;100.00;100885.88;5021417;28;20393;-64
2022/09/13 03:33:44;;;;;;;4.57;4.10;;;;;;;16.78;100.00;100878.88;5026892;28;20034;-65
2022/09/13 03:36:10;;;;;;;4.50;3.88;;;;;;;16.77;100.00;100882.34;5027221;28;20084;-65
2022/09/13 03:38:45;;;;;;;4.10;3.58;;;;;;;16.75;100.00;100887.56;5026914;28;20063;-65
2022/09/13 03:41:22;;;;;;;4.50;4.15;;;;;;;16.75;100.00;100881.47;5026244;28;20040;-64
2022/09/13 03:43:52;;;;;;;4.43;4.10;;;;;;;16.74;100.00;100878.00;5026686;28;20029;-64
2022/09/13 03:46:25;;;;;;;5.97;4.25;;;;;;;16.73;100.00;100876.22;5026876;28;20108;-65
2022/09/13 03:48:52;;;;;;;4.40;4.00;;;;;;;16.72;100.00;100878.84;5028843;28;20037;-65
2022/09/13 03:51:18;;;;;;;5.50;4.65;;;;;;;16.70;100.00;100881.44;5030816;28;20185;-65
2022/09/13 03:53:55;;;;;;;4.55;4.13;;;;;;;16.70;100.00;100876.22;5030623;28;20073;-64
2022/09/13 03:56:20;;;;;;;4.63;4.22;;;;;;;16.67;100.00;100870.97;5031128;28;20037;-65
2022/09/13 03:58:47;;;;;;;4.53;4.13;;;;;;;16.69;100.00;100870.09;5030937;28;20033;-64
2022/09/13 04:01:12;;;;;;;5.07;3.88;;;;;;;16.70;100.00;100865.75;5030271;28;20021;-65
2022/09/13 04:03:38;;;;;;;6.72;4.07;;;;;;;16.71;100.00;100877.97;5030665;28;20547;-64
2022/09/13 04:06:04;;;;;;;4.95;4.53;;;;;;;16.71;100.00;100877.97;5030426;28;20049;-65
2022/09/13 04:08:31;;;;;;;4.78;4.30;;;;;;;16.71;100.00;100877.97;5030234;28;20113;-65
2022/09/13 04:10:57;;;;;;;4.75;4.35;;;;;;;16.69;100.00;100871.84;5030396;28;20436;-65
2022/09/13 04:13:22;;;;;;;3.92;3.63;;;;;;;16.69;100.00;100883.16;5030067;28;20496;-65
2022/09/13 04:15:49;;;;;;;4.63;3.40;;;;;;;16.70;100.00;100891.91;5030163;28;20021;-65
2022/09/13 04:18:14;;;;;;;5.38;4.40;;;;;;;16.69;100.00;100895.41;5023953;28;20036;-64
2022/09/13 04:20:39;;;;;;;6.38;4.47;;;;;;;16.68;100.00;100899.75;5030436;28;20025;-65
2022/09/13 04:23:05;;;;;;;5.57;4.45;;;;;;;16.66;100.00;100901.47;5030226;28;20089;-64
2022/09/13 04:25:30;;;;;;;4.53;4.07;;;;;;;16.65;100.00;100904.06;5029431;28;20036;-65
2022/09/13 04:27:58;;;;;;;4.70;3.80;;;;;;;16.64;100.00;100903.19;5030131;28;20032;-64
2022/09/13 04:30:24;;;;;;;4.63;4.20;;;;;;;16.64;100.00;100899.72;5031634;28;20036;-65
2022/09/13 04:32:49;;;;;;;4.85;3.95;;;;;;;16.61;100.00;100907.53;5043671;28;20410;-65
2022/09/13 04:35:18;;;;;;;4.25;3.83;;;;;;;16.59;100.00;100914.47;5030647;28;20021;-65
2022/09/13 04:37:44;;;;;;;4.95;4.55;;;;;;;16.53;100.00;100921.41;5041236;28;20122;-65
2022/09/13 04:40:11;;;;;;;6.32;4.38;;;;;;;16.50;100.00;100920.50;5029712;28;20029;-65
2022/09/13 04:42:36;;;;;;;6.88;5.43;;;;;;;16.46;100.00;100924.84;5027901;28;20049;-64
2022/09/13 04:45:03;;;;;;;6.90;4.85;;;;;;;16.43;100.00;100919.59;5030142;28;20500;-65
2022/09/13 04:47:29;;;;;;;5.45;4.95;;;;;;;16.42;100.00;100923.09;5035850;28;20277;-65
2022/09/13 04:49:55;;;;;;;7.18;5.07;;;;;;;16.37;100.00;100920.41;5028659;28;20473;-65
2022/09/13 04:52:20;;;;;;;5.55;5.03;;;;;;;16.35;100.00;100918.66;5033949;28;20043;-65
2022/09/13 04:54:48;;;;;;;5.28;4.85;;;;;;;16.32;100.00;100915.16;5028820;28;20389;-65
2022/09/13 04:57:15;;;;;;;7.40;5.00;;;;;;;16.31;100.00;100916.03;5027051;28;20033;-65
2022/09/13 04:59:40;;;;;;;5.50;5.00;;;;;;;16.30;100.00;100924.72;5026138;28;20029;-65
2022/09/13 05:02:06;;;;;;;6.28;4.90;;;;;;;16.28;100.00;100915.13;5027631;28;20503;-65
2022/09/13 05:04:31;;;;;;;6.97;4.70;;;;;;;16.27;100.00;100923.78;5022596;28;20033;-65
2022/09/13 05:06:57;;;;;;;6.93;5.22;;;;;;;16.26;100.00;100920.31;5017992;28;20033;-65
2022/09/13 05:09:23;;;;;;;7.38;5.18;;;;;;;16.24;100.00;100919.44;5025998;28;20484;-65
2022/09/13 05:11:49;;;;;;;5.40;4.88;;;;;;;16.25;100.00;100912.44;5026144;28;20477;-65
2022/09/13 05:14:15;;;;;;;6.75;4.75;;;;;;;16.25;100.00;100915.94;5026284;28;20025;-65
2022/09/13 05:16:40;;;;;;;6.25;5.40;;;;;;;16.26;100.00;100917.69;5027373;28;20040;-65
2022/09/13 05:19:05;;;;;;;6.40;5.28;;;;;;;16.28;100.00;100920.34;5026424;28;20036;-64
2022/09/13 05:21:31;;;;;;;6.05;5.50;;;;;;;16.28;100.00;100917.72;5039403;28;20499;-64
2022/09/13 05:23:57;;;;;;;5.30;4.72;;;;;;;16.29;100.00;100915.13;5027044;28;20035;-65
2022/09/13 05:26:24;;;;;;;7.32;5.68;;;;;;;16.29;100.00;100912.50;5028213;28;20029;-65
2022/09/13 05:28:49;;;;;;;6.55;5.07;;;;;;;16.30;100.00;100911.63;5028052;28;20034;-65
2022/09/13 05:31:25;;;;;;;7.63;6.40;;;;;;;16.29;100.00;100912.50;5027919;28;20028;-65
2022/09/13 05:34:02;;;;;;;5.70;5.25;;;;;;;16.32;100.00;100927.31;5028225;28;20045;-65
2022/09/13 05:36:28;;;;;;;5.57;5.10;;;;;;;16.31;100.00;100925.59;5028136;28;20428;-64
2022/09/13 05:38:53;;;;;;;7.20;6.60;;;;;;;16.31;100.00;100931.72;5028304;28;20025;-65
2022/09/13 05:41:19;;;;;;;7.72;5.90;;;;;;;16.32;100.00;100930.84;4995201;28;1040877;-64
2022/09/13 05:43:44;;;;;;;8.35;7.00;;;;;;;16.32;100.00;100937.78;5028274;28;20119;-65
2022/09/13 05:46:14;;;;;;;7.00;6.32;;;;;;;16.35;100.00;100931.72;5029167;28;20048;-65
2022/09/13 05:48:40;;;;;;;7.60;7.00;;;;;;;16.33;100.00;100935.19;5028899;28;20029;-65
2022/09/13 05:51:18;;;;;;;6.88;6.18;;;;;;;16.36;100.00;100929.13;5029235;28;20355;-65
2022/09/13 05:53:46;;;;;;;7.78;5.90;;;;;;;16.37;100.00;100924.78;5028721;28;20147;-65
2022/09/13 05:56:14;;;;;;;7.47;6.03;;;;;;;16.39;100.00;100930.88;5028459;28;20273;-65
2022/09/13 05:58:41;;;;;;;6.90;6.28;;;;;;;16.40;100.00;100936.16;5028480;28;20044;-65
2022/09/13 06:01:08;;;;;;;7.63;6.80;;;;;;;16.42;100.00;100934.41;5028551;28;20021;-65
2022/09/13 06:03:35;;;;;;;8.90;7.00;;;;;;;16.43;100.00;100935.28;5028699;28;20392;-66
2022/09/13 06:06:00;;;;;;;8.00;7.30;;;;;;;16.44;100.00;100937.91;5028751;28;20057;-65
2022/09/13 06:08:28;;;;;;;7.75;6.95;;;;;;;16.46;100.00;100934.44;5027604;28;20026;-65
2022/09/13 06:11:06;;;;;;;7.53;6.30;;;;;;;16.45;100.00;100933.56;5027439;28;20033;-65
2022/09/13 06:13:32;;;;;;;7.68;6.88;;;;;;;16.47;100.00;100921.38;5028364;28;20034;-65
2022/09/13 06:15:59;;;;;;;7.25;6.57;;;;;;;16.50;100.00;100931.84;5028573;28;20092;-65
2022/09/13 06:18:25;;;;;;;7.68;6.97;;;;;;;16.51;100.00;100923.16;5028468;28;20238;-64
2022/09/13 06:20:58;;;;;;;11.07;7.55;;;;;;;16.53;100.00;100937.09;5028038;28;20473;-65
2022/09/13 06:23:23;;;;;;;9.52;8.45;;;;;;;16.55;100.00;100935.38;5028516;28;20038;-65
2022/09/13 06:25:48;;;;;;;9.38;8.57;;;;;;;16.58;100.00;100937.16;5027851;28;20025;-65
2022/09/13 06:28:14;;;;;;;9.07;7.72;;;;;;;16.62;100.00;100930.22;5028012;28;20395;-65
2022/09/13 06:30:39;;;;;;;9.23;8.32;;;;;;;16.64;100.00;100926.75;5027941;28;20219;-66
2022/09/13 06:33:04;;;;;;;14.02;8.90;;;;;;;16.67;100.00;100926.78;5028129;28;20029;-65
2022/09/13 06:35:30;;;;;;;8.23;7.53;;;;;;;16.71;100.00;100929.41;5028362;28;20519;-65
2022/09/13 06:37:57;;;;;;;12.80;9.25;;;;;;;16.74;100.00;100925.09;5028131;28;20470;-65
2022/09/13 06:40:23;;;;;;;10.02;7.75;;;;;;;16.77;100.00;100922.47;5028029;28;20032;-65
2022/09/13 06:42:48;;;;;;;11.82;9.35;;;;;;;16.82;100.00;100919.03;5027851;28;20644;-65
2022/09/13 06:45:13;;;;;;;9.52;8.55;;;;;;;16.86;100.00;100923.41;5027410;28;20548;-65
2022/09/13 06:47:39;;;;;;;9.05;8.25;;;;;;;16.91;100.00;100921.69;5028047;28;20029;-65
2022/09/13 06:50:06;;;;;;;12.02;8.15;;;;;;;16.99;100.00;100921.75;5028099;28;20025;-65
2022/09/13 06:52:31;;;;;;;9.50;8.60;;;;;;;17.04;100.00;100931.41;5027632;28;20116;-65
2022/09/13 06:54:56;;;;;;;10.15;9.05;;;;;;;17.07;100.00;100920.06;5027746;28;20495;-65
2022/09/13 06:57:22;;;;;;;10.98;9.93;;;;;;;17.16;100.00;100917.53;5027072;28;20032;-65
2022/09/13 06:59:47;;;;;;;10.82;9.40;;;;;;;17.28;100.00;100924.59;5027700;28;20087;-65
2022/09/13 07:02:13;;;;;;;10.98;9.75;;;;;;;17.44;100.00;100919.44;5027505;28;20067;-65
2022/09/13 07:04:39;;;;;;;11.32;10.07;;;;;;;17.71;100.00;100919.53;5027249;28;20047;-65
2022/09/13 07:07:04;;;;;;;12.25;9.77;;;;;;;17.93;100.00;100925.72;5027797;28;20037;-65
2022/09/13 07:09:30;;;;;;;10.85;9.85;;;;;;;18.07;100.00;100917.88;5027555;28;20457;-65
2022/09/13 07:11:56;;;;;;;11.75;10.55;;;;;;;18.30;100.00;100926.69;5027351;28;20026;-66
2022/09/13 07:14:24;;;;;;;12.00;10.80;;;;;;;18.61;100.00;100924.09;5026978;28;20033;-65
2022/09/13 07:16:50;;;;;;;11.35;10.18;;;;;;;18.94;100.00;100924.91;5027458;28;20076;-65
2022/09/13 07:19:18;;;;;;;11.27;10.02;;;;;;;19.30;100.00;100921.38;5027169;28;20038;-65
2022/09/13 07:21:45;;;;;;;11.88;10.45;;;;;;;19.63;100.00;100924.75;5027794;28;20041;-65
2022/09/13 07:24:10;;;;;;;12.73;10.90;;;;;;;20.00;99.76;100925.44;5027421;28;20030;-65
2022/09/13 07:26:36;;;;;;;11.68;10.57;;;;;;;20.26;96.82;100925.28;5027549;28;20037;-65
2022/09/13 07:29:04;;;;;;;11.95;10.77;;;;;;;20.45;93.96;100924.28;5026861;28;20028;-66
2022/09/13 07:31:38;;;;;;;13.25;11.85;;;;;;;20.62;93.41;100934.66;5027653;28;20018;-65
2022/09/13 07:34:12;;;;;;;13.02;11.63;;;;;;;20.73;91.81;100938.09;5027489;28;20075;-65
2022/09/13 07:36:37;;;;;;;12.20;11.10;;;;;;;20.88;93.61;100937.06;5026488;28;20057;-65
2022/09/13 07:39:03;;;;;;;13.70;11.98;;;;;;;21.09;91.92;100942.16;5027109;28;20553;-65
2022/09/13 07:41:30;;;;;;;14.82;13.52;;;;;;;21.30;89.36;100938.41;5026933;28;20048;-65
2022/09/13 07:43:56;;;;;;;14.38;12.95;;;;;;;21.48;88.40;100941.72;5026991;28;20485;-65
2022/09/13 07:46:24;;;;;;;14.73;13.38;;;;;;;21.67;86.70;100936.22;5026441;28;20553;-65
2022/09/13 07:48:53;;;;;;;18.70;13.48;;;;;;;21.85;86.26;100944.81;5026712;28;20029;-65
2022/09/13 07:51:26;;;;;;;14.63;13.15;;;;;;;21.99;85.61;100944.63;5026859;28;20049;-65
2022/09/13 07:53:56;;;;;;;15.65;13.95;;;;;;;22.21;83.96;100947.84;5026458;28;20124;-65
2022/09/13 07:56:26;;;;;;;16.38;14.50;;;;;;;22.39;82.99;100945.78;5027085;28;20469;-65
2022/09/13 07:58:53;;;;;;;16.92;15.52;;;;;;;22.48;83.04;100950.06;5027007;28;20485;-65
2022/09/13 08:01:24;;;;;;;15.48;13.95;;;;;;;22.53;83.35;100946.44;5026774;28;20022;-65
2022/09/13 08:03:57;;;;;;;16.67;15.13;;;;;;;22.59;82.91;100947.25;5027099;28;20474;-65
2022/09/13 08:06:24;;;;;;;18.17;16.33;;;;;;;22.68;83.14;100949.75;5026270;28;20053;-65
2022/09/13 08:08:49;;;;;;;17.85;16.08;;;;;;;22.76;82.40;100955.78;5026789;28;20029;-66
2022/09/13 08:11:20;;;;;;;18.00;16.30;;;;;;;22.77;83.16;100949.56;5026797;28;20378;-66
2022/09/13 08:13:46;;;;;;;19.30;17.45;;;;;;;22.89;81.81;100952.91;5026688;28;20044;-65
2022/09/13 08:16:12;;;;;;;19.88;18.10;;;;;;;22.99;81.00;100959.75;5026402;28;20025;-65
2022/09/13 08:18:45;;;;;;;20.73;18.83;;;;;;;23.09;79.64;100956.97;5026602;28;20136;-65
2022/09/13 08:21:11;;;;;;;18.77;17.08;;;;;;;23.12;80.72;100955.13;5026565;28;20057;-65
2022/09/13 08:23:36;;;;;;;19.33;17.60;;;;;;;23.23;81.37;100960.22;5026652;28;20457;-64
2022/09/13 08:26:02;;;;;;;20.73;18.83;;;;;;;23.35;80.01;100956.44;5026452;28;20037;-65
2022/09/13 08:28:29;;;;;;;21.40;19.38;;;;;;;23.44;80.18;100958.06;5026518;28;20092;-65
2022/09/13 08:30:54;;;;;;;22.13;20.00;;;;;;;23.53;79.99;100956.16;5026566;28;20026;-65
2022/09/13 08:33:19;;;;;;;23.73;21.33;;;;;;;23.53;79.49;100969.38;5026481;28;20032;-65
2022/09/13 08:35:51;;;;;;;22.45;20.35;;;;;;;23.56;78.63;100977.22;5029515;28;20025;-65
2022/09/13 08:38:17;;;;;;;24.35;21.83;;;;;;;23.55;78.51;100970.22;5030585;28;20231;-64
2022/09/13 08:40:48;;;;;;;23.55;21.35;;;;;;;23.55;78.15;100971.06;5029713;28;20042;-65
2022/09/13 08:43:32;;;;;;;;;;;;;;;23.49;79.48;100966.78;5030906;28;20049;-65
2022/09/13 08:46:08;;;;;;;21.33;19.13;;;;;;;23.55;79.71;100980.78;5017395;28;19978;-65
2022/09/13 08:48:36;;;;;;;21.50;19.42;;;;;;;23.61;79.79;100975.38;5030212;28;20520;-64
2022/09/13 08:51:06;;;;;;;22.23;19.90;;;;;;;23.74;80.49;100979.50;5029754;28;20032;-64
2022/09/13 08:53:53;;;;;;;21.17;19.05;;;;;;;23.87;78.41;100981.88;5029787;28;20087;-64
2022/09/13 08:56:30;;;;;;;22.42;20.25;;;;;;;23.99;77.75;100973.69;5029641;28;20044;-64
2022/09/13 08:59:33;;;;;;;22.77;20.45;;;;;;;24.14;77.53;100974.22;5029917;28;20116;-65
2022/09/13 09:02:13;;;;;;;22.50;20.33;;;;;;;24.28;75.88;100965.13;5029848;28;20037;-65
2022/09/13 09:04:49;;;;;;;22.77;20.73;;;;;;;24.34;76.31;100959.66;5029430;28;20102;-64
2022/09/13 09:07:28;;;;;;;20.83;18.73;;;;;;;24.48;77.23;100963.78;5029487;28;20033;-64
2022/09/13 09:10:12;;;;;;;17.33;15.75;;;;;;;24.58;74.67;100955.56;5030180;28;20469;-64
2022/09/13 09:12:43;;;;;;;20.73;18.65;;;;;;;24.64;73.24;100954.53;5029537;28;20556;-64
2022/09/13 09:15:22;;;;;;;19.13;17.15;;;;;;;24.67;74.24;100951.81;5029732;28;20033;-65
2022/09/13 09:17:56;;;;;;;17.60;15.80;;;;;;;24.71;73.14;100947.31;5029114;28;20492;-64
2022/09/13 09:20:26;;;;;;;20.30;18.30;;;;;;;24.67;74.06;100948.28;5029074;28;20061;-64
2022/09/13 09:22:53;;;;;;;19.77;17.88;;;;;;;24.63;73.94;100944.84;5029686;28;20466;-64
2022/09/13 09:25:22;;;;;;;19.17;17.40;;;;;;;24.58;73.75;100946.75;5029347;28;20029;-65
2022/09/13 09:27:48;;;;;;;17.52;15.82;;;;;;;24.55;73.75;100947.72;5011770;28;20025;-64
2022/09/13 09:30:14;;;;;;;16.88;15.18;;;;;;;24.53;74.50;100949.53;5029385;28;20358;-64
2022/09/13 09:32:39;;;;;;;15.88;14.27;;;;;;;24.50;74.92;100949.56;5029458;28;20037;-65
2022/09/13 09:35:17;;;;;;;16.52;14.80;;;;;;;24.47;73.43;100944.38;5028793;28;20027;-64
2022/09/13 09:37:49;;;;;;;17.52;15.82;;;;;;;24.43;73.58;100948.88;5028404;28;20033;-65
2022/09/13 09:40:16;;;;;;;18.60;15.25;;;;;;;24.38;73.71;100945.47;5028986;28;20253;-64
2022/09/13 09:42:45;;;;;;;14.40;12.98;;;;;;;24.45;76.08;100952.34;5028589;28;20456;-65
2022/09/13 09:45:32;;;;;;;16.95;15.18;;;;;;;24.49;74.02;100953.16;5028615;28;20064;-64
2022/09/13 09:48:04;;;;;;;17.08;15.38;;;;;;;24.53;74.60;100949.53;5027890;28;20033;-65
2022/09/13 09:50:33;;;;;;;16.50;13.90;;;;;;;24.58;75.58;100949.38;5028524;28;20059;-65
2022/09/13 09:53:15;;;;;;;18.53;16.80;;;;;;;24.60;75.32;100950.22;5029036;28;20504;-64
2022/09/13 09:55:47;;;;;;;18.10;16.38;;;;;;;24.54;74.95;100950.38;5028342;28;20017;-65
2022/09/13 09:58:17;;;;;;;16.25;14.75;;;;;;;24.51;74.68;100945.16;5028480;28;20037;-64
2022/09/13 10:01:21;;;;;;;14.48;13.07;;;;;;;24.52;73.93;100946.91;5028602;28;20034;-65
2022/09/13 10:04:09;;;;;;;14.82;13.32;;;;;;;24.54;74.47;100947.72;5004252;28;20095;-64
2022/09/13 10:06:37;;;;;;;16.63;14.85;;;;;;;24.61;75.25;100951.94;5028257;28;20040;-64
2022/09/13 10:09:18;;;;;;;17.92;16.17;;;;;;;24.63;75.79;100951.94;5028374;28;20039;-66
2022/09/13 10:11:57;;;;;;;;;;;;;;;24.66;76.37;100955.34;5028648;28;20029;-65
2022/09/13 10:14:46;;;;;;;13.52;12.25;;;;;;;24.79;77.47;100939.16;5028145;28;19916;-65
2022/09/13 10:17:25;;;;;;;15.25;13.75;;;;;;;24.92;77.08;100943.25;5028964;28;20109;-66
2022/09/13 10:20:00;;;;;;;18.33;16.63;;;;;;;25.01;76.81;100939.47;5014620;28;20037;-66
2022/09/13 10:22:26;;;;;;;20.48;17.95;;;;;;;25.09;73.60;100935.75;5028782;28;20029;-66
2022/09/13 10:24:52;;;;;;;13.18;11.88;;;;;;;25.16;76.11;100934.66;5027725;28;20445;-65
2022/09/13 10:27:33;;;;;;;12.93;11.73;;;;;;;25.29;75.91;100943.16;5028384;28;20017;-66
2022/09/13 10:29:59;;;;;;;;;;;;;;;25.21;73.40;100945.13;5028780;28;20465;-66
2022/09/13 10:32:27;;;;;;;15.38;14.07;;;;;;;25.07;73.79;100943.75;5028407;28;20148;-66
2022/09/13 10:34:54;;;;;;;16.08;14.45;;;;;;;25.01;75.41;100938.59;5027750;28;20100;-66
2022/09/13 10:37:32;;;;;;;11.30;10.18;;;;;;;25.12;77.04;100935.66;5028290;28;20037;-66
2022/09/13 10:40:01;;;;;;;15.18;13.30;;;;;;;25.15;74.69;100939.09;5027670;28;20018;-66
2022/09/13 10:42:29;;;;;;;15.35;12.93;;;;;;;25.00;74.93;100942.19;5027544;28;20041;-65
2022/09/13 10:44:58;;;;;;;13.63;12.23;;;;;;;24.87;76.13;100938.94;5027963;28;20022;-66
2022/09/13 10:47:46;;;;;;;12.77;10.77;;;;;;;24.73;76.29;100939.31;5027546;28;20035;-66
2022/09/13 10:50:26;;;;;;;13.80;10.45;;;;;;;24.60;76.76;100942.28;5027672;28;20128;-66
2022/09/13 10:52:54;;;;;;;10.10;9.10;;;;;;;24.65;78.55;100942.16;5015580;28;20033;-65
2022/09/13 10:55:32;;;;;;;13.85;11.15;;;;;;;24.62;75.37;100942.25;5027764;28;20048;-66
2022/09/13 10:58:00;;;;;;;12.02;10.85;;;;;;;24.61;77.25;100938.72;5027484;28;20025;-66
2022/09/13 11:00:38;;;;;;;12.60;11.45;;;;;;;24.57;76.19;100931.78;5027262;28;20033;-66
2022/09/13 11:03:26;;;;;;;13.15;11.90;;;;;;;24.49;76.99;100926.66;5027302;28;20503;-66
2022/09/13 11:06:06;;;;;;;13.73;12.48;;;;;;;24.44;77.74;100921.50;5027656;28;20469;-66
2022/09/13 11:08:53;;;;;;;11.15;10.05;;;;;;;24.44;79.62;100924.16;5028094;28;20513;-67
2022/09/13 11:11:48;;;;;;;9.43;8.52;;;;;;;24.43;79.44;100911.78;5027392;28;20021;-66
2022/09/13 11:14:28;;;;;;;11.32;9.93;;;;;;;24.45;79.50;100912.63;5002406;28;20535;-66
2022/09/13 11:16:59;;;;;;;11.48;10.35;;;;;;;24.49;79.79;100909.91;5027246;28;20084;-65
2022/09/13 11:19:58;;;;;;;14.93;13.38;;;;;;;24.53;80.14;100906.28;5027306;28;20075;-66
2022/09/13 11:22:52;;;;;;;12.13;11.02;;;;;;;24.51;78.60;100905.44;5027375;28;20017;-66
2022/09/13 11:25:28;;;;;;;13.52;12.05;;;;;;;24.52;78.83;100902.75;5027203;28;20025;-66
2022/09/13 11:28:14;;;;;;;11.82;10.73;;;;;;;24.59;78.79;100900.84;5027244;28;20037;-66
2022/09/13 11:30:52;;;;;;;13.55;12.30;;;;;;;24.72;77.47;100903.16;5027003;28;20084;-66
2022/09/13 11:33:44;;;;;;;14.60;12.77;;;;;;;24.77;76.95;100902.09;5026694;28;20040;-66
2022/09/13 11:36:32;;;;;;;9.40;8.43;;;;;;;25.03;78.83;100897.03;5027402;28;20025;-66